Terminal Aerodrome Forecast
Issued by NWS

Home | Current Version | Previous Version | Text Only | Print | Product List | Glossary On
Versions: 1 2 3 4 5 6 7 8 9 10 11 12 13 14
247
FTUS43 KMQT 201724
TAFSAW
TAF
KSAW 201724Z 2018/2118 20010KT P6SM SKC
     FM210200 20009KT P6SM SKC WS010/22040KT
     FM211200 19013KT P6SM SCT200=

USA.gov is the U.S. government's official web portal to all federal, state and local government web resources and services.